Time;durP1;ratioP1;P1;durP2;ratioP2;P2;SDS_P1;SDS_P2;PMS_P1;PMS_P2;Temp;Humidity;BMP_temperature;BMP_pressure;BME280_temperature;BME280_humidity;BME280_pressure;Samples;Min_cycle;Max_cycle;Signal;HPM_P1;HPM_P2
2023/09/13 00:02:03;;;;;;;;;;;26.30;70.10;;;;;;5076274;28;19916;-55
2023/09/13 00:04:28;;;;;;;;;;;26.30;70.10;;;;;;5076225;28;20368;-55
2023/09/13 00:06:54;;;;;;;;;;;26.30;70.90;;;;;;5075811;28;19917;-55
2023/09/13 00:09:19;;;;;;;;;;;26.30;70.10;;;;;;5075826;28;19915;-55
2023/09/13 00:11:45;;;;;;;;;;;26.30;70.10;;;;;;5075756;28;19909;-55
2023/09/13 00:14:10;;;;;;;;;;;26.30;70.20;;;;;;5075788;28;19946;-57
2023/09/13 00:16:36;;;;;;;;;;;26.20;70.10;;;;;;5075681;28;19919;-55
2023/09/13 00:19:03;;;;;;;;;;;26.30;70.10;;;;;;5075600;28;19947;-55
2023/09/13 00:21:29;;;;;;;;;;;26.20;70.10;;;;;;5075706;28;20003;-55
2023/09/13 00:23:54;;;;;;;;;;;26.20;70.00;;;;;;5075502;28;20002;-55
2023/09/13 00:26:20;;;;;;;;;;;26.30;70.10;;;;;;5075417;28;19913;-55
2023/09/13 00:28:46;;;;;;;;;;;26.30;70.10;;;;;;5075394;28;19908;-55
2023/09/13 00:31:12;;;;;;;;;;;26.30;70.10;;;;;;5075475;28;19919;-55
2023/09/13 00:33:37;;;;;;;;;;;26.20;70.80;;;;;;5075279;28;19909;-55
2023/09/13 00:36:03;;;;;;;;;;;26.20;70.00;;;;;;5075636;28;19916;-55
2023/09/13 00:38:28;;;;;;;;;;;26.20;70.10;;;;;;5075233;28;19908;-56
2023/09/13 00:40:54;;;;;;;;;;;26.20;70.10;;;;;;5075199;28;19934;-55
2023/09/13 00:43:19;;;;;;;;;;;26.20;70.10;;;;;;5075252;28;20360;-55
2023/09/13 00:45:45;;;;;;;;;;;26.20;70.10;;;;;;5073713;28;19951;-55
2023/09/13 00:48:11;;;;;;;;;;;26.20;70.10;;;;;;5073912;28;19916;-56
2023/09/13 00:50:37;;;;;;;;;;;26.20;70.10;;;;;;5074833;28;19913;-55
2023/09/13 00:53:03;;;;;;;;;;;26.20;70.10;;;;;;5075387;28;20057;-55
2023/09/13 00:55:28;;;;;;;;;;;26.20;70.20;;;;;;5074329;28;19915;-55
2023/09/13 00:57:54;;;;;;;;;;;26.20;70.20;;;;;;5073732;28;19908;-55
2023/09/13 01:00:20;;;;;;;;;;;26.20;70.20;;;;;;5074925;28;20287;-55
2023/09/13 01:02:45;;;;;;;;;;;26.20;70.20;;;;;;5074801;28;19998;-55
2023/09/13 01:05:12;;;;;;;;;;;26.20;70.20;;;;;;5074826;28;19919;-55
2023/09/13 01:07:38;;;;;;;;;;;26.20;70.20;;;;;;5074752;28;20330;-55
2023/09/13 01:10:04;;;;;;;;;;;26.20;70.20;;;;;;5074692;28;19912;-55
2023/09/13 01:12:29;;;;;;;;;;;26.20;70.20;;;;;;5074970;28;20301;-55
2023/09/13 01:14:55;;;;;;;;;;;26.20;70.30;;;;;;5074612;28;19987;-55
2023/09/13 01:17:22;;;;;;;;;;;26.20;70.30;;;;;;5073540;28;19943;-55
2023/09/13 01:19:53;;;;;;;;;;;26.20;70.20;;;;;;5074453;28;19909;-55
2023/09/13 01:22:21;;;;;;;;;;;26.10;70.30;;;;;;5074421;28;19958;-56
2023/09/13 01:25:09;;;;;;;;;;;26.20;70.30;;;;;;5074106;28;19920;-55
2023/09/13 01:27:38;;;;;;;;;;;26.20;70.40;;;;;;5074300;28;19912;-55
2023/09/13 01:30:04;;;;;;;;;;;26.10;70.40;;;;;;5073080;28;19999;-55
2023/09/13 01:32:29;;;;;;;;;;;26.10;70.40;;;;;;5073198;28;19960;-55
2023/09/13 01:34:55;;;;;;;;;;;26.10;70.30;;;;;;5072951;28;20283;-55
2023/09/13 01:37:20;;;;;;;;;;;26.10;70.30;;;;;;5074063;28;19909;-55
2023/09/13 01:39:46;;;;;;;;;;;26.10;70.50;;;;;;5074030;28;19912;-55
2023/09/13 01:42:11;;;;;;;;;;;26.00;70.50;;;;;;5072732;28;19912;-56
2023/09/13 01:44:40;;;;;;;;;;;26.00;70.50;;;;;;5072862;28;19913;-55
2023/09/13 01:47:05;;;;;;;;;;;26.00;70.50;;;;;;5072752;28;20316;-55
2023/09/13 01:49:30;;;;;;;;;;;26.00;70.50;;;;;;5073939;28;19908;-55
2023/09/13 01:51:56;;;;;;;;;;;26.00;70.50;;;;;;5073866;28;20435;-55
2023/09/13 01:54:21;;;;;;;;;;;26.00;70.50;;;;;;5073829;28;20330;-55
2023/09/13 01:56:47;;;;;;;;;;;26.00;70.60;;;;;;5073725;28;19916;-55
2023/09/13 01:59:12;;;;;;;;;;;26.00;70.50;;;;;;5073721;28;20280;-55
2023/09/13 02:01:38;;;;;;;;;;;26.00;70.50;;;;;;5073704;28;19908;-56
2023/09/13 02:04:04;;;;;;;;;;;26.00;70.40;;;;;;5073658;28;19916;-55
2023/09/13 02:06:29;;;;;;;;;;;26.00;70.50;;;;;;5072700;28;19920;-55
2023/09/13 02:08:55;;;;;;;;;;;26.00;70.60;;;;;;5073403;28;19974;-55
2023/09/13 02:11:20;;;;;;;;;;;26.00;70.80;;;;;;5073622;28;19930;-55
2023/09/13 02:13:46;;;;;;;;;;;26.00;70.70;;;;;;5073234;28;19909;-55
2023/09/13 02:16:12;;;;;;;;;;;25.90;70.70;;;;;;5073378;28;19913;-56
2023/09/13 02:18:38;;;;;;;;;;;25.90;70.70;;;;;;5073282;28;19908;-55
2023/09/13 02:21:03;;;;;;;;;;;25.90;70.70;;;;;;5073362;28;19916;-55
2023/09/13 02:23:29;;;;;;;;;;;25.90;70.70;;;;;;5073255;28;19908;-55
2023/09/13 02:25:54;;;;;;;;;;;25.90;70.80;;;;;;5073121;28;19908;-55
2023/09/13 02:28:20;;;;;;;;;;;25.80;70.90;;;;;;5073257;28;19909;-55
2023/09/13 02:30:46;;;;;;;;;;;25.90;71.10;;;;;;5073244;28;19909;-55
2023/09/13 02:33:11;;;;;;;;;;;25.80;71.00;;;;;;5073604;28;19959;-55
2023/09/13 02:35:37;;;;;;;;;;;25.80;71.00;;;;;;5073174;28;19956;-55
2023/09/13 02:38:02;;;;;;;;;;;25.80;71.00;;;;;;5073036;28;19908;-56
2023/09/13 02:40:28;;;;;;;;;;;25.80;71.00;;;;;;5073081;28;19934;-55
2023/09/13 02:42:53;;;;;;;;;;;25.80;71.10;;;;;;5072999;28;20380;-55
2023/09/13 02:45:19;;;;;;;;;;;25.70;70.90;;;;;;5072962;28;20324;-55
2023/09/13 02:47:44;;;;;;;;;;;25.80;70.90;;;;;;5073211;28;20348;-55
2023/09/13 02:50:10;;;;;;;;;;;25.80;70.90;;;;;;5072942;28;20300;-55
2023/09/13 02:52:35;;;;;;;;;;;25.80;70.90;;;;;;5072777;28;20020;-55
2023/09/13 02:55:01;;;;;;;;;;;25.80;70.80;;;;;;5072913;28;19989;-55
2023/09/13 02:57:26;;;;;;;;;;;25.80;70.80;;;;;;5072881;28;19956;-55
2023/09/13 02:59:52;;;;;;;;;;;25.80;71.00;;;;;;5071564;28;19913;-55
2023/09/13 03:02:17;;;;;;;;;;;25.80;71.00;;;;;;5072812;28;19999;-55
2023/09/13 03:04:43;;;;;;;;;;;25.80;71.00;;;;;;5072745;28;20364;-55
2023/09/13 03:07:09;;;;;;;;;;;25.80;72.00;;;;;;5072713;28;20404;-55
2023/09/13 03:09:34;;;;;;;;;;;25.70;71.00;;;;;;5072786;28;19936;-55
2023/09/13 03:12:01;;;;;;;;;;;25.80;71.10;;;;;;5072711;28;19915;-55
2023/09/13 03:14:28;;;;;;;;;;;25.80;71.10;;;;;;5072718;28;20362;-55
2023/09/13 03:16:53;;;;;;;;;;;25.80;71.10;;;;;;5072629;28;19915;-56
2023/09/13 03:19:18;;;;;;;;;;;25.70;70.90;;;;;;5076794;28;20003;-54
2023/09/13 03:21:44;;;;;;;;;;;25.70;70.90;;;;;;5076759;28;20208;-55
2023/09/13 03:24:10;;;;;;;;;;;25.80;70.90;;;;;;5076722;28;19908;-55
2023/09/13 03:26:35;;;;;;;;;;;25.70;70.90;;;;;;5076562;28;19913;-55
2023/09/13 03:29:01;;;;;;;;;;;25.70;70.90;;;;;;5076486;28;20008;-55
2023/09/13 03:31:26;;;;;;;;;;;25.70;71.00;;;;;;5076578;28;19913;-55
2023/09/13 03:33:52;;;;;;;;;;;25.70;71.10;;;;;;5076452;28;19908;-56
2023/09/13 03:36:18;;;;;;;;;;;25.70;71.00;;;;;;5076451;28;19910;-55
2023/09/13 03:38:44;;;;;;;;;;;25.70;70.90;;;;;;5076269;28;19931;-55
2023/09/13 03:41:13;;;;;;;;;;;25.70;70.80;;;;;;5076390;28;20344;-55
2023/09/13 03:43:38;;;;;;;;;;;25.80;71.00;;;;;;5074968;28;19908;-54
2023/09/13 03:46:04;;;;;;;;;;;25.70;71.00;;;;;;5076175;28;19908;-55
2023/09/13 03:48:30;;;;;;;;;;;25.70;70.80;;;;;;5076181;28;20361;-55
2023/09/13 03:50:56;;;;;;;;;;;25.70;70.80;;;;;;5075882;28;19966;-55
2023/09/13 03:53:21;;;;;;;;;;;25.80;70.90;;;;;;5074927;28;19909;-55
2023/09/13 03:55:46;;;;;;;;;;;25.80;70.90;;;;;;5075920;28;19920;-55
2023/09/13 03:58:12;;;;;;;;;;;25.80;71.00;;;;;;5075910;28;19931;-55
2023/09/13 04:00:37;;;;;;;;;;;25.70;70.80;;;;;;5075989;28;19908;-55
2023/09/13 04:03:03;;;;;;;;;;;25.70;70.90;;;;;;5075769;28;19908;-55
2023/09/13 04:05:29;;;;;;;;;;;25.70;70.90;;;;;;5075749;28;19999;-55
2023/09/13 04:07:55;;;;;;;;;;;25.70;70.80;;;;;;5074435;28;19958;-55
2023/09/13 04:10:20;;;;;;;;;;;25.80;70.90;;;;;;5075786;28;20261;-55
2023/09/13 04:12:45;;;;;;;;;;;25.80;71.00;;;;;;5075650;28;19915;-55
2023/09/13 04:15:11;;;;;;;;;;;25.70;71.00;;;;;;5075595;28;19924;-55
2023/09/13 04:17:36;;;;;;;;;;;25.70;70.90;;;;;;5075538;28;20020;-55
2023/09/13 04:20:02;;;;;;;;;;;25.70;70.80;;;;;;5075555;28;19909;-55
2023/09/13 04:22:28;;;;;;;;;;;25.70;71.00;;;;;;5075523;28;19915;-55
2023/09/13 04:24:53;;;;;;;;;;;25.70;71.10;;;;;;5075337;28;19909;-54
2023/09/13 04:27:22;;;;;;;;;;;25.60;70.90;;;;;;5075312;28;20015;-55
2023/09/13 04:29:47;;;;;;;;;;;25.70;71.10;;;;;;5074403;28;19912;-55
2023/09/13 04:32:13;;;;;;;;;;;25.60;71.00;;;;;;5075433;28;20023;-55
2023/09/13 04:34:38;;;;;;;;;;;25.70;71.00;;;;;;5075345;28;19930;-55
2023/09/13 04:37:06;;;;;;;;;;;25.60;71.10;;;;;;5075464;28;19909;-55
2023/09/13 04:39:32;;;;;;;;;;;25.60;71.00;;;;;;5075338;28;19909;-55
2023/09/13 04:41:58;;;;;;;;;;;25.60;71.00;;;;;;5075151;28;19915;-55
2023/09/13 04:44:24;;;;;;;;;;;25.60;71.20;;;;;;5074969;28;19909;-55
2023/09/13 04:46:50;;;;;;;;;;;25.60;71.30;;;;;;5075004;28;20399;-55
2023/09/13 04:49:16;;;;;;;;;;;25.60;71.20;;;;;;5075095;28;19909;-55
2023/09/13 04:51:41;;;;;;;;;;;25.60;71.20;;;;;;5074828;28;20011;-55
2023/09/13 04:54:06;;;;;;;;;;;25.60;71.10;;;;;;5075003;28;19913;-55
2023/09/13 04:56:32;;;;;;;;;;;25.60;71.10;;;;;;5074804;28;19909;-55
2023/09/13 04:58:57;;;;;;;;;;;25.50;71.20;;;;;;5074956;28;19916;-55
2023/09/13 05:01:23;;;;;;;;;;;25.50;71.20;;;;;;5074871;28;20011;-55
2023/09/13 05:03:49;;;;;;;;;;;25.50;71.30;;;;;;5074707;28;19916;-55
2023/09/13 05:06:15;;;;;;;;;;;25.50;71.00;;;;;;5074532;28;19920;-55
2023/09/13 05:08:41;;;;;;;;;;;25.50;71.10;;;;;;5074613;28;20355;-55
2023/09/13 05:11:06;;;;;;;;;;;25.40;71.20;;;;;;5074609;28;19909;-55
2023/09/13 05:13:32;;;;;;;;;;;25.40;71.10;;;;;;5074424;28;20356;-56
2023/09/13 05:15:58;;;;;;;;;;;25.40;71.00;;;;;;5074458;28;19915;-55
2023/09/13 05:18:23;;;;;;;;;;;25.40;70.90;;;;;;5074419;28;19915;-55
2023/09/13 05:20:49;;;;;;;;;;;25.40;70.80;;;;;;5074424;28;19909;-55
2023/09/13 05:23:14;;;;;;;;;;;25.40;70.80;;;;;;5074366;28;19915;-55
2023/09/13 05:25:46;;;;;;;;;;;25.40;70.60;;;;;;5074323;28;19913;-55
2023/09/13 05:28:12;;;;;;;;;;;25.40;70.30;;;;;;5074128;28;19912;-55
2023/09/13 05:30:37;;;;;;;;;;;25.50;70.50;;;;;;5073045;28;19912;-55
2023/09/13 05:33:03;;;;;;;;;;;25.40;70.30;;;;;;5074165;28;20034;-55
2023/09/13 05:35:31;;;;;;;;;;;25.50;70.30;;;;;;5074444;28;19908;-55
2023/09/13 05:37:57;;;;;;;;;;;25.50;70.20;;;;;;5073949;28;20291;-56
2023/09/13 05:40:23;;;;;;;;;;;25.50;70.20;;;;;;5073925;28;19999;-55
2023/09/13 05:42:48;;;;;;;;;;;25.50;70.10;;;;;;5073889;28;19913;-55
2023/09/13 05:45:14;;;;;;;;;;;25.40;69.90;;;;;;5074018;28;19909;-55
2023/09/13 05:47:39;;;;;;;;;;;25.50;70.00;;;;;;5073953;28;19955;-55
2023/09/13 05:50:05;;;;;;;;;;;25.40;70.00;;;;;;5073853;28;20356;-55
2023/09/13 05:52:33;;;;;;;;;;;25.40;70.00;;;;;;5073750;28;19916;-55
2023/09/13 05:54:58;;;;;;;;;;;25.40;69.90;;;;;;5073942;28;20387;-55
2023/09/13 05:57:24;;;;;;;;;;;25.40;69.90;;;;;;5073671;28;20006;-55
2023/09/13 05:59:49;;;;;;;;;;;25.40;69.70;;;;;;5073609;28;19955;-55
2023/09/13 06:02:15;;;;;;;;;;;25.40;69.70;;;;;;5073493;28;19909;-55
2023/09/13 06:04:40;;;;;;;;;;;25.40;69.60;;;;;;5074001;28;19908;-55
2023/09/13 06:07:05;;;;;;;;;;;25.40;69.60;;;;;;5073618;28;19923;-55
2023/09/13 06:09:31;;;;;;;;;;;25.40;69.50;;;;;;5073555;28;19920;-55
2023/09/13 06:11:57;;;;;;;;;;;25.40;69.50;;;;;;5073307;28;19999;-55
2023/09/13 06:14:23;;;;;;;;;;;25.40;69.50;;;;;;5072133;28;20373;-55
2023/09/13 06:16:49;;;;;;;;;;;25.40;69.40;;;;;;5073391;28;20004;-55
2023/09/13 06:19:14;;;;;;;;;;;25.40;69.40;;;;;;5073230;28;19999;-55
2023/09/13 06:21:40;;;;;;;;;;;25.40;69.40;;;;;;5073194;28;20277;-55
2023/09/13 06:24:05;;;;;;;;;;;25.40;69.40;;;;;;5073413;28;20292;-54
2023/09/13 06:26:31;;;;;;;;;;;25.40;69.40;;;;;;5073087;28;19912;-55
2023/09/13 06:28:56;;;;;;;;;;;25.40;69.30;;;;;;5072929;28;19919;-55
2023/09/13 06:31:22;;;;;;;;;;;25.30;69.20;;;;;;5073018;28;19915;-55
2023/09/13 06:33:47;;;;;;;;;;;25.40;69.30;;;;;;5073046;28;19912;-55
2023/09/13 06:36:13;;;;;;;;;;;25.40;69.20;;;;;;5073098;28;19908;-55
2023/09/13 06:38:38;;;;;;;;;;;25.30;69.10;;;;;;5073146;28;20415;-55
2023/09/13 06:41:04;;;;;;;;;;;25.30;69.20;;;;;;5073035;28;20360;-55
2023/09/13 06:43:29;;;;;;;;;;;25.30;69.00;;;;;;5073336;28;19958;-55
2023/09/13 06:45:55;;;;;;;;;;;25.30;69.00;;;;;;5073064;28;19915;-55
2023/09/13 06:48:20;;;;;;;;;;;25.30;69.10;;;;;;5072895;28;19913;-55
2023/09/13 06:50:46;;;;;;;;;;;25.30;69.00;;;;;;5072693;28;19915;-55
2023/09/13 06:53:11;;;;;;;;;;;25.30;68.90;;;;;;5072384;28;19912;-55
2023/09/13 06:55:37;;;;;;;;;;;25.20;68.80;;;;;;5073081;28;19962;-55
2023/09/13 06:58:03;;;;;;;;;;;25.20;68.80;;;;;;5072664;28;20372;-55
2023/09/13 07:00:28;;;;;;;;;;;25.20;68.80;;;;;;5072777;28;19909;-55
2023/09/13 07:02:54;;;;;;;;;;;25.20;68.80;;;;;;5072832;28;20395;-55
2023/09/13 07:05:19;;;;;;;;;;;25.20;68.70;;;;;;5072920;28;20280;-55
2023/09/13 07:07:45;;;;;;;;;;;25.20;68.70;;;;;;5072671;28;19923;-55
2023/09/13 07:10:10;;;;;;;;;;;25.20;68.40;;;;;;5072882;28;19942;-55
2023/09/13 07:12:36;;;;;;;;;;;25.10;68.60;;;;;;5072821;28;19956;-55
2023/09/13 07:15:02;;;;;;;;;;;25.10;68.50;;;;;;5072911;28;19946;-55
2023/09/13 07:17:27;;;;;;;;;;;25.10;68.40;;;;;;5072714;28;20391;-55
2023/09/13 07:19:54;;;;;;;;;;;25.10;68.30;;;;;;5072758;28;19934;-55
2023/09/13 07:22:19;;;;;;;;;;;25.10;68.10;;;;;;5072631;28;19922;-55
2023/09/13 07:24:45;;;;;;;;;;;25.10;68.00;;;;;;5072706;28;19975;-54
2023/09/13 07:27:10;;;;;;;;;;;25.10;67.90;;;;;;5072497;28;19912;-55
2023/09/13 07:29:36;;;;;;;;;;;25.10;67.80;;;;;;5072515;28;20372;-55
2023/09/13 07:32:02;;;;;;;;;;;25.10;67.70;;;;;;5072429;28;20284;-55
2023/09/13 07:34:28;;;;;;;;;;;25.10;67.60;;;;;;5072659;28;19913;-55
2023/09/13 07:36:54;;;;;;;;;;;25.10;67.50;;;;;;5072597;28;20288;-55
2023/09/13 07:39:19;;;;;;;;;;;25.10;67.50;;;;;;5072668;28;19909;-55
2023/09/13 07:41:44;;;;;;;;;;;25.10;67.40;;;;;;5071048;28;20365;-55
2023/09/13 07:44:10;;;;;;;;;;;25.10;67.30;;;;;;5072541;28;19909;-55
2023/09/13 07:46:35;;;;;;;;;;;25.10;67.30;;;;;;5072387;28;20284;-55
2023/09/13 07:49:01;;;;;;;;;;;25.10;67.10;;;;;;5072432;28;20057;-55
2023/09/13 07:51:26;;;;;;;;;;;25.10;67.20;;;;;;5072168;28;19971;-55
2023/09/13 07:53:53;;;;;;;;;;;25.10;67.20;;;;;;5072243;28;20353;-55
2023/09/13 07:56:19;;;;;;;;;;;25.10;67.10;;;;;;5070952;28;19909;-54
2023/09/13 07:58:45;;;;;;;;;;;25.10;67.90;;;;;;5072106;28;19915;-55
2023/09/13 08:01:11;;;;;;;;;;;25.10;67.00;;;;;;5070866;28;20347;-55
2023/09/13 08:03:37;;;;;;;;;;;25.10;66.80;;;;;;5072462;28;20112;-55
2023/09/13 08:06:03;;;;;;;;;;;25.10;66.90;;;;;;5075329;28;20414;-55
2023/09/13 08:08:30;;;;;;;;;;;25.00;66.90;;;;;;5075848;28;19930;-55
2023/09/13 08:10:56;;;;;;;;;;;25.10;66.70;;;;;;5074454;28;19915;-55
2023/09/13 08:13:22;;;;;;;;;;;25.10;66.60;;;;;;5074273;28;19908;-55
2023/09/13 08:15:48;;;;;;;;;;;25.10;66.60;;;;;;5075849;28;19955;-56
2023/09/13 08:18:13;;;;;;;;;;;25.10;66.70;;;;;;5074570;28;19912;-54
2023/09/13 08:20:39;;;;;;;;;;;25.10;66.60;;;;;;5075758;28;19973;-55
2023/09/13 08:23:04;;;;;;;;;;;25.10;66.60;;;;;;5075669;28;20097;-55
2023/09/13 08:25:30;;;;;;;;;;;25.10;66.60;;;;;;5075635;28;20315;-54
2023/09/13 08:27:55;;;;;;;;;;;25.00;66.30;;;;;;5073993;28;19917;-55
2023/09/13 08:30:21;;;;;;;;;;;24.90;66.40;;;;;;5075423;28;19909;-55
2023/09/13 08:32:46;;;;;;;;;;;25.00;66.40;;;;;;5075531;28;19908;-55
2023/09/13 08:35:11;;;;;;;;;;;24.90;66.30;;;;;;5075564;28;19920;-55
2023/09/13 08:37:37;;;;;;;;;;;25.00;66.40;;;;;;5075565;28;19964;-55
2023/09/13 08:40:04;;;;;;;;;;;25.00;66.30;;;;;;5074001;28;20331;-55
2023/09/13 08:42:29;;;;;;;;;;;25.10;66.30;;;;;;5075418;28;19916;-55
2023/09/13 08:44:55;;;;;;;;;;;25.00;66.20;;;;;;5073920;28;19908;-55
2023/09/13 08:47:22;;;;;;;;;;;24.90;66.10;;;;;;5075096;28;19962;-55
2023/09/13 08:49:48;;;;;;;;;;;24.90;66.00;;;;;;5075042;28;20400;-55
2023/09/13 08:52:13;;;;;;;;;;;24.90;66.10;;;;;;5074950;28;20284;-55
2023/09/13 08:54:39;;;;;;;;;;;24.90;66.00;;;;;;5075014;28;20368;-55
2023/09/13 08:57:04;;;;;;;;;;;24.90;65.90;;;;;;5074929;28;19977;-55
2023/09/13 08:59:30;;;;;;;;;;;24.90;65.80;;;;;;5074884;28;19934;-55
2023/09/13 09:01:55;;;;;;;;;;;24.90;65.90;;;;;;5074758;28;19916;-56
2023/09/13 09:04:21;;;;;;;;;;;24.90;65.70;;;;;;5074983;28;19915;-55
2023/09/13 09:06:46;;;;;;;;;;;24.90;65.50;;;;;;5074657;28;19916;-55
2023/09/13 09:09:12;;;;;;;;;;;24.90;65.30;;;;;;5074753;28;19943;-55
2023/09/13 09:11:38;;;;;;;;;;;24.90;65.40;;;;;;5074718;28;19919;-55
2023/09/13 09:14:03;;;;;;;;;;;25.00;65.30;;;;;;5074517;28;19920;-55
2023/09/13 09:16:32;;;;;;;;;;;24.90;65.30;;;;;;5073021;28;19908;-55
2023/09/13 09:19:00;;;;;;;;;;;24.90;65.20;;;;;;5074437;28;19920;-55
2023/09/13 09:21:26;;;;;;;;;;;24.90;65.20;;;;;;5074468;28;19916;-55
2023/09/13 09:23:51;;;;;;;;;;;24.80;65.10;;;;;;5074359;28;20033;-55
2023/09/13 09:26:17;;;;;;;;;;;24.80;65.10;;;;;;5074447;28;20082;-55
2023/09/13 09:28:43;;;;;;;;;;;24.90;65.10;;;;;;5074299;28;19909;-55
2023/09/13 09:31:10;;;;;;;;;;;24.90;64.90;;;;;;5074368;28;19908;-55
2023/09/13 09:33:38;;;;;;;;;;;24.90;64.90;;;;;;5074206;28;19915;-55
2023/09/13 09:36:03;;;;;;;;;;;24.90;64.80;;;;;;5074166;28;19908;-55
2023/09/13 09:38:29;;;;;;;;;;;24.90;64.80;;;;;;5074243;28;19916;-55
2023/09/13 09:40:59;;;;;;;;;;;24.90;64.80;;;;;;5073997;28;19908;-55
2023/09/13 09:43:25;;;;;;;;;;;24.90;64.60;;;;;;5074149;28;20269;-55
2023/09/13 09:45:50;;;;;;;;;;;24.90;64.70;;;;;;5073966;28;19928;-55
2023/09/13 09:48:16;;;;;;;;;;;24.90;64.60;;;;;;5073840;28;20365;-55
2023/09/13 09:50:42;;;;;;;;;;;24.90;64.60;;;;;;5073771;28;20411;-55
2023/09/13 09:53:10;;;;;;;;;;;24.90;64.60;;;;;;5073948;28;20319;-56
2023/09/13 09:55:36;;;;;;;;;;;24.90;64.60;;;;;;5074033;28;20000;-55
2023/09/13 09:58:02;;;;;;;;;;;24.90;64.60;;;;;;5073617;28;19952;-55
2023/09/13 10:00:27;;;;;;;;;;;24.90;64.60;;;;;;5073700;28;19959;-55
2023/09/13 10:02:53;;;;;;;;;;;24.90;64.30;;;;;;5073713;28;19908;-55
2023/09/13 10:05:20;;;;;;;;;;;24.90;64.50;;;;;;5055707;28;19909;-55
2023/09/13 10:07:49;;;;;;;;;;;24.90;64.40;;;;;;5073433;28;20296;-55
2023/09/13 10:10:26;;;;;;;;;;;24.80;64.40;;;;;;5073572;28;19909;-55
2023/09/13 10:12:52;;;;;;;;;;;24.90;64.30;;;;;;5073519;28;20298;-55
2023/09/13 10:15:18;;;;;;;;;;;24.70;64.30;;;;;;5073549;28;19912;-55
2023/09/13 10:17:44;;;;;;;;;;;24.80;64.50;;;;;;5073707;28;19909;-55
2023/09/13 10:20:10;;;;;;;;;;;24.80;64.50;;;;;;5073477;28;20303;-55
2023/09/13 10:22:35;;;;;;;;;;;24.80;64.40;;;;;;5072035;28;19909;-55
2023/09/13 10:25:03;;;;;;;;;;;24.80;64.30;;;;;;5073183;28;20261;-55
2023/09/13 10:27:28;;;;;;;;;;;24.80;64.20;;;;;;5072419;28;20008;-55
2023/09/13 10:29:55;;;;;;;;;;;24.80;64.10;;;;;;5073151;28;19908;-55
2023/09/13 10:32:22;;;;;;;;;;;24.90;64.20;;;;;;5073228;28;19955;-55
2023/09/13 10:34:51;;;;;;;;;;;24.90;64.10;;;;;;5073207;28;19912;-55
2023/09/13 10:37:19;;;;;;;;;;;24.90;64.00;;;;;;5073125;28;20210;-56
2023/09/13 10:39:51;;;;;;;;;;;24.80;64.10;;;;;;5071821;28;20302;-55
2023/09/13 10:42:17;;;;;;;;;;;24.80;64.10;;;;;;5073260;28;19917;-55
2023/09/13 10:44:43;;;;;;;;;;;24.80;64.10;;;;;;5073029;28;19912;-54
2023/09/13 10:47:09;;;;;;;;;;;24.80;64.10;;;;;;5071759;28;19912;-55
2023/09/13 10:49:38;;;;;;;;;;;24.80;64.00;;;;;;5072959;28;20369;-55
2023/09/13 10:52:05;;;;;;;;;;;24.80;64.20;;;;;;5072802;28;19917;-55
2023/09/13 10:54:30;;;;;;;;;;;24.80;64.20;;;;;;5072981;28;19912;-55
2023/09/13 10:56:56;;;;;;;;;;;24.80;64.20;;;;;;5072828;28;19915;-55
2023/09/13 10:59:24;;;;;;;;;;;24.80;64.10;;;;;;5072835;28;19936;-55
2023/09/13 11:01:50;;;;;;;;;;;24.70;63.90;;;;;;5072862;28;19908;-55
2023/09/13 11:04:15;;;;;;;;;;;24.70;64.00;;;;;;5072949;28;20398;-55
2023/09/13 11:06:41;;;;;;;;;;;24.70;64.00;;;;;;5072667;28;19917;-55
2023/09/13 11:09:10;;;;;;;;;;;24.70;64.10;;;;;;5072754;28;19913;-55
2023/09/13 11:11:36;;;;;;;;;;;24.70;64.00;;;;;;5072704;28;20273;-55
2023/09/13 11:14:05;;;;;;;;;;;24.70;64.00;;;;;;5072496;28;19970;-55
2023/09/13 11:16:31;;;;;;;;;;;24.70;63.90;;;;;;5071408;28;19908;-55
2023/09/13 11:18:56;;;;;;;;;;;24.70;64.00;;;;;;5072685;28;19916;-55
2023/09/13 11:21:25;;;;;;;;;;;24.70;63.90;;;;;;5072807;28;20376;-55
2023/09/13 11:23:52;;;;;;;;;;;24.70;63.80;;;;;;5072662;28;20476;-56
2023/09/13 11:26:38;;;;;;;;;;;24.70;63.70;;;;;;5071131;28;19917;-55
2023/09/13 11:29:19;;;;;;;;;;;24.70;63.70;;;;;;5072312;28;19920;-55
2023/09/13 11:32:00;;;;;;;;;;;24.70;63.80;;;;;;5072589;28;19908;-56
2023/09/13 11:34:25;;;;;;;;;;;24.70;63.70;;;;;;5072468;28;19938;-55
2023/09/13 11:36:55;;;;;;;;;;;24.70;63.70;;;;;;5072333;28;19908;-55
2023/09/13 11:39:20;;;;;;;;;;;24.70;63.70;;;;;;5074891;28;19916;-55
2023/09/13 11:41:46;;;;;;;;;;;24.70;63.60;;;;;;5076339;28;19908;-55
2023/09/13 11:44:11;;;;;;;;;;;24.70;63.60;;;;;;5076687;28;20050;-55
2023/09/13 11:46:37;;;;;;;;;;;24.60;63.40;;;;;;5058027;28;19927;-55
2023/09/13 11:49:02;;;;;;;;;;;24.70;63.60;;;;;;5074802;28;19987;-55
2023/09/13 11:51:28;;;;;;;;;;;24.70;63.40;;;;;;5076038;28;19924;-55
2023/09/13 11:53:54;;;;;;;;;;;24.70;63.40;;;;;;5074944;28;19995;-55
2023/09/13 11:56:35;;;;;;;;;;;24.60;63.30;;;;;;5076078;28;19947;-56
2023/09/13 11:59:01;;;;;;;;;;;24.60;63.40;;;;;;5076039;28;19962;-55
2023/09/13 12:01:28;;;;;;;;;;;24.60;63.30;;;;;;5076033;28;19908;-55
2023/09/13 12:03:53;;;;;;;;;;;24.70;63.30;;;;;;5075891;28;19915;-55
2023/09/13 12:06:19;;;;;;;;;;;24.70;64.00;;;;;;5075832;28;19995;-55
2023/09/13 12:08:46;;;;;;;;;;;24.60;63.10;;;;;;5075808;28;20434;-55
2023/09/13 12:11:11;;;;;;;;;;;24.60;63.10;;;;;;5075724;28;19909;-55
2023/09/13 12:13:46;;;;;;;;;;;24.50;63.00;;;;;;5075752;28;19939;-55
2023/09/13 12:16:12;;;;;;;;;;;24.40;63.00;;;;;;5075780;28;20333;-56
2023/09/13 12:18:38;;;;;;;;;;;24.50;63.00;;;;;;5075658;28;19912;-55
2023/09/13 12:21:04;;;;;;;;;;;24.40;62.80;;;;;;5075568;28;19913;-55
2023/09/13 12:23:33;;;;;;;;;;;24.40;62.40;;;;;;5075553;28;20383;-54
2023/09/13 12:25:58;;;;;;;;;;;24.30;63.40;;;;;;5075512;28;20388;-55
2023/09/13 12:28:27;;;;;;;;;;;24.30;62.40;;;;;;5075574;28;19912;-56
2023/09/13 12:30:53;;;;;;;;;;;24.30;62.30;;;;;;5075367;28;19915;-55
2023/09/13 12:33:19;;;;;;;;;;;24.30;62.10;;;;;;5075469;28;19909;-55
2023/09/13 12:35:44;;;;;;;;;;;24.30;61.90;;;;;;5075299;28;19909;-55
2023/09/13 12:38:12;;;;;;;;;;;24.30;61.80;;;;;;5075252;28;19908;-55
2023/09/13 12:40:37;;;;;;;;;;;24.20;61.90;;;;;;5075262;28;19909;-55
2023/09/13 12:43:03;;;;;;;;;;;24.20;61.80;;;;;;5075026;28;20253;-55
2023/09/13 12:45:32;;;;;;;;;;;24.20;61.60;;;;;;5074107;28;19978;-55
2023/09/13 12:47:57;;;;;;;;;;;24.20;61.50;;;;;;5073739;28;19916;-55
2023/09/13 12:50:23;;;;;;;;;;;24.20;61.10;;;;;;5074333;28;19916;-55
2023/09/13 12:52:54;;;;;;;;;;;24.10;61.20;;;;;;5073651;28;20372;-56
2023/09/13 12:55:22;;;;;;;;;;;24.20;61.20;;;;;;5075088;28;19981;-55
2023/09/13 12:57:49;;;;;;;;;;;24.30;61.10;;;;;;5074910;28;19912;-55
2023/09/13 13:00:15;;;;;;;;;;;24.30;60.90;;;;;;5074879;28;19994;-55
2023/09/13 13:02:40;;;;;;;;;;;24.30;60.80;;;;;;5075039;28;19908;-55
2023/09/13 13:05:06;;;;;;;;;;;24.30;60.70;;;;;;5073455;28;20368;-56
2023/09/13 13:07:33;;;;;;;;;;;24.30;60.60;;;;;;5073359;28;19924;-55
2023/09/13 13:10:03;;;;;;;;;;;24.30;60.30;;;;;;5073473;28;19954;-55
2023/09/13 13:12:28;;;;;;;;;;;24.30;60.10;;;;;;5074749;28;19919;-55
2023/09/13 13:14:54;;;;;;;;;;;24.30;59.90;;;;;;5074449;28;20343;-55
2023/09/13 13:17:19;;;;;;;;;;;24.30;59.50;;;;;;5074587;28;19909;-55
2023/09/13 13:19:45;;;;;;;;;;;24.30;59.40;;;;;;5074417;28;19963;-55
2023/09/13 13:22:14;;;;;;;;;;;24.20;59.20;;;;;;5074306;28;19940;-55
2023/09/13 13:24:39;;;;;;;;;;;24.20;59.00;;;;;;5074416;28;20348;-55
2023/09/13 13:27:05;;;;;;;;;;;24.30;59.00;;;;;;5074114;28;19913;-55
2023/09/13 13:29:30;;;;;;;;;;;24.20;58.50;;;;;;5073924;28;19908;-55
2023/09/13 13:31:56;;;;;;;;;;;24.30;58.60;;;;;;5072778;28;19909;-56
2023/09/13 13:34:21;;;;;;;;;;;24.30;58.50;;;;;;5074218;28;19963;-55
2023/09/13 13:36:46;;;;;;;;;;;24.30;58.30;;;;;;5074256;28;19953;-55
2023/09/13 13:39:15;;;;;;;;;;;24.30;58.20;;;;;;5074122;28;20053;-55
2023/09/13 13:41:41;;;;;;;;;;;24.30;58.10;;;;;;5074074;28;19936;-55
2023/09/13 13:44:07;;;;;;;;;;;24.40;58.00;;;;;;5074009;28;19916;-56
2023/09/13 13:46:32;;;;;;;;;;;24.40;58.00;;;;;;5073815;28;19908;-55
2023/09/13 13:48:58;;;;;;;;;;;24.30;58.00;;;;;;5073876;28;19963;-55
2023/09/13 13:51:24;;;;;;;;;;;24.30;57.90;;;;;;5073700;28;19916;-55
2023/09/13 13:53:50;;;;;;;;;;;24.30;57.70;;;;;;5073717;28;19991;-55
2023/09/13 13:56:15;;;;;;;;;;;24.20;58.10;;;;;;5073825;28;20388;-55
2023/09/13 13:58:41;;;;;;;;;;;24.30;58.00;;;;;;5073858;28;19995;-55
2023/09/13 14:01:06;;;;;;;;;;;24.30;57.90;;;;;;5073579;28;20356;-55
2023/09/13 14:03:31;;;;;;;;;;;24.30;57.70;;;;;;5073846;28;20012;-55
2023/09/13 14:05:57;;;;;;;;;;;24.30;57.70;;;;;;5073550;28;19909;-56
2023/09/13 14:08:23;;;;;;;;;;;24.20;57.70;;;;;;5072220;28;19921;-55
2023/09/13 14:10:48;;;;;;;;;;;24.20;57.70;;;;;;5073671;28;19916;-55